createdAt,value
2023-03-20T00:02:25.080Z,16.02
2023-03-20T00:04:54.602Z,16.35
2023-03-20T00:09:51.658Z,17.15
2023-03-20T00:12:25.396Z,15.43
2023-03-20T00:14:54.409Z,16.17
2023-03-20T00:17:22.941Z,15.15
2023-03-20T00:19:51.678Z,14.93
2023-03-20T00:22:23.006Z,15.27
2023-03-20T00:24:51.633Z,15.98
2023-03-20T00:27:19.671Z,14.30
2023-03-20T00:29:48.344Z,14.60
2023-03-20T00:32:16.670Z,14.20
2023-03-20T00:34:44.842Z,16.20
2023-03-20T00:37:14.745Z,15.70
2023-03-20T00:39:44.109Z,15.70
2023-03-20T00:42:22.177Z,14.00
2023-03-20T00:44:53.972Z,14.70
2023-03-20T00:47:26.397Z,15.07
2023-03-20T00:49:55.994Z,14.02
2023-03-20T00:54:54.988Z,13.52
2023-03-20T00:57:26.651Z,13.93
2023-03-20T00:59:59.519Z,13.07
2023-03-20T01:02:29.783Z,13.85
2023-03-20T01:04:59.408Z,14.05
2023-03-20T01:07:27.736Z,12.87
2023-03-20T01:09:59.449Z,14.38
2023-03-20T01:12:27.421Z,12.45
2023-03-20T01:14:57.719Z,12.80
2023-03-20T01:22:24.437Z,12.82
2023-03-20T01:24:53.428Z,14.55
2023-03-20T01:27:23.649Z,16.60
2023-03-20T01:29:52.145Z,15.30
2023-03-20T01:32:21.706Z,14.10
2023-03-20T01:34:53.118Z,16.33
2023-03-20T01:39:54.417Z,16.10
2023-03-20T01:42:24.771Z,17.17
2023-03-20T01:44:54.048Z,17.65
2023-03-20T01:47:24.718Z,18.63
2023-03-20T01:50:36.361Z,18.10
2023-03-20T01:53:16.386Z,18.73
2023-03-20T01:55:55.943Z,19.15
2023-03-20T01:58:30.635Z,19.92
2023-03-20T02:01:00.716Z,19.67
2023-03-20T02:03:28.902Z,20.52
2023-03-20T02:06:16.688Z,21.02
2023-03-20T02:09:03.459Z,21.55
2023-03-20T02:11:41.701Z,24.25
2023-03-20T02:14:12.215Z,20.95
2023-03-20T02:17:02.313Z,21.60
2023-03-20T02:19:51.591Z,20.90
2023-03-20T02:22:55.173Z,22.40
2023-03-20T02:25:58.157Z,22.45
2023-03-20T02:29:02.205Z,20.30
2023-03-20T02:31:59.494Z,20.13
2023-03-20T02:35:08.370Z,20.55
2023-03-20T02:38:08.836Z,18.38
2023-03-20T02:40:46.556Z,20.55
2023-03-20T02:43:21.921Z,19.20
2023-03-20T02:45:56.204Z,19.77
2023-03-20T02:48:40.820Z,20.17
2023-03-20T02:51:17.831Z,20.63
2023-03-20T02:53:53.918Z,20.33
2023-03-20T02:56:31.656Z,18.55
2023-03-20T02:59:08.634Z,19.92
2023-03-20T03:01:43.400Z,19.38
2023-03-20T03:04:17.606Z,20.17
2023-03-20T03:06:50.309Z,19.50
2023-03-20T03:09:22.961Z,21.10
2023-03-20T03:11:56.943Z,21.02
2023-03-20T03:14:48.073Z,20.35
2023-03-20T03:17:21.673Z,20.15
2023-03-20T03:19:53.043Z,21.02
2023-03-20T03:22:22.873Z,20.00
2023-03-20T03:24:54.383Z,13.45
2023-03-20T03:27:29.383Z,19.42
2023-03-20T03:29:59.615Z,21.63
2023-03-20T03:32:33.857Z,21.73
2023-03-20T03:35:05.583Z,20.35
2023-03-20T03:37:43.927Z,21.77
2023-03-20T03:40:21.220Z,22.00
2023-03-20T03:42:54.914Z,21.33
2023-03-20T03:45:30.735Z,21.83
2023-03-20T03:48:06.848Z,21.95
2023-03-20T03:50:40.032Z,21.73
2023-03-20T03:53:12.699Z,22.20
2023-03-20T03:55:48.397Z,17.13
2023-03-20T03:58:20.266Z,22.25
2023-03-20T04:00:51.994Z,19.45
2023-03-20T04:03:25.799Z,23.33
2023-03-20T04:05:56.770Z,19.45
2023-03-20T04:08:27.341Z,21.90
2023-03-20T04:10:56.789Z,21.42
2023-03-20T04:13:24.732Z,21.83
2023-03-20T04:15:54.080Z,22.50
2023-03-20T04:18:22.490Z,24.25
2023-03-20T04:20:51.982Z,22.08
2023-03-20T04:23:20.373Z,24.60
2023-03-20T04:25:48.633Z,23.02
2023-03-20T04:28:19.547Z,22.58
2023-03-20T04:31:00.351Z,20.90
2023-03-20T04:33:47.949Z,21.42
2023-03-20T04:36:43.421Z,21.40
2023-03-20T04:39:14.022Z,23.02
2023-03-20T04:41:42.909Z,21.52
2023-03-20T04:44:12.868Z,21.45
2023-03-20T04:46:43.391Z,22.70
2023-03-20T04:49:17.207Z,21.35
2023-03-20T04:51:45.246Z,18.58
2023-03-20T04:56:46.153Z,18.80
2023-03-20T04:59:20.925Z,19.65
2023-03-20T05:01:49.462Z,20.67
2023-03-20T05:04:17.622Z,20.52
2023-03-20T05:06:49.578Z,19.67
2023-03-20T05:09:20.999Z,18.77
2023-03-20T05:11:52.045Z,16.60
2023-03-20T05:14:59.654Z,17.60
2023-03-20T05:17:52.688Z,17.42
2023-03-20T05:20:32.418Z,20.10
2023-03-20T05:23:06.532Z,19.80
2023-03-20T05:25:55.664Z,19.88
2023-03-20T05:28:24.587Z,19.50
2023-03-20T05:31:13.097Z,18.70
2023-03-20T05:34:06.808Z,18.60
2023-03-20T05:36:43.906Z,21.65
2023-03-20T05:39:33.082Z,18.92
2023-03-20T05:42:29.802Z,19.23
2023-03-20T05:45:18.230Z,20.17
2023-03-20T05:48:08.170Z,20.80
2023-03-20T05:50:43.440Z,18.70
2023-03-20T05:53:37.571Z,18.65
2023-03-20T05:56:38.778Z,17.15
2023-03-20T05:59:23.719Z,20.63
2023-03-20T06:02:07.828Z,20.58
2023-03-20T06:04:41.908Z,18.80
2023-03-20T06:07:22.084Z,19.20
2023-03-20T06:09:58.480Z,17.67
2023-03-20T06:12:28.008Z,18.20
2023-03-20T06:14:55.957Z,17.60
2023-03-20T06:17:25.405Z,18.00
2023-03-20T06:20:02.496Z,16.48
2023-03-20T06:22:32.389Z,16.15
2023-03-20T06:25:01.457Z,17.77
2023-03-20T06:27:35.995Z,17.30
2023-03-20T06:30:05.162Z,16.65
2023-03-20T06:32:36.823Z,17.85
2023-03-20T06:35:10.160Z,18.80
2023-03-20T06:37:39.813Z,17.10
2023-03-20T06:40:14.391Z,18.52
2023-03-20T06:42:43.300Z,16.77
2023-03-20T06:45:13.320Z,17.70
2023-03-20T06:47:55.017Z,17.23
2023-03-20T06:50:25.551Z,17.23
2023-03-20T06:52:55.431Z,16.92
2023-03-20T06:55:39.180Z,18.27
2023-03-20T07:00:38.568Z,17.55
2023-03-20T07:03:10.609Z,15.60
2023-03-20T07:08:12.115Z,16.88
2023-03-20T07:10:40.138Z,17.20
2023-03-20T07:13:08.137Z,15.77
2023-03-20T07:15:39.147Z,16.70
2023-03-20T07:18:10.551Z,15.10
2023-03-20T07:20:40.933Z,16.00
2023-03-20T07:23:09.627Z,13.68
2023-03-20T07:25:42.952Z,14.80
2023-03-20T07:28:17.157Z,14.52
2023-03-20T07:30:51.806Z,16.65
2023-03-20T07:33:24.543Z,14.45
2023-03-20T07:35:56.101Z,16.85
2023-03-20T07:38:25.488Z,15.52
2023-03-20T07:41:05.963Z,14.65
2023-03-20T07:43:36.742Z,16.17
2023-03-20T07:46:28.181Z,14.90
2023-03-20T07:48:58.685Z,13.63
2023-03-20T07:53:56.531Z,12.23
2023-03-20T07:56:24.901Z,11.48
2023-03-20T07:58:54.720Z,11.32
2023-03-20T08:01:23.398Z,11.07
2023-03-20T08:03:52.016Z,12.57
2023-03-20T08:06:20.730Z,12.88
2023-03-20T08:08:52.903Z,13.32
2023-03-20T08:11:22.044Z,11.70
2023-03-20T08:13:49.968Z,12.48
2023-03-20T08:16:20.024Z,13.48
2023-03-20T08:18:48.014Z,12.77
2023-03-20T08:21:16.536Z,13.02
2023-03-20T08:23:44.913Z,12.73
2023-03-20T08:26:14.300Z,12.20
2023-03-20T08:28:47.856Z,11.50
2023-03-20T08:31:18.219Z,11.65
2023-03-20T08:33:46.928Z,11.35
2023-03-20T08:36:16.306Z,10.60
2023-03-20T08:38:45.051Z,10.77
2023-03-20T08:41:14.479Z,10.93
2023-03-20T08:43:42.920Z,10.45
2023-03-20T08:46:12.528Z,10.93
2023-03-20T08:48:40.612Z,11.52
2023-03-20T08:51:09.892Z,9.18
2023-03-20T08:53:38.313Z,9.68
2023-03-20T08:56:08.383Z,10.03
2023-03-20T08:58:37.731Z,8.93
2023-03-20T09:01:08.450Z,8.32
2023-03-20T09:03:36.886Z,7.95
2023-03-20T09:06:08.210Z,9.05
2023-03-20T09:08:36.920Z,8.48
2023-03-20T09:11:05.758Z,8.77
2023-03-20T09:13:34.303Z,8.20
2023-03-20T09:16:04.471Z,9.60
2023-03-20T09:18:32.492Z,8.38
2023-03-20T09:21:00.388Z,9.18
2023-03-20T09:25:58.894Z,6.70
2023-03-20T09:28:27.958Z,8.73
2023-03-20T09:31:00.167Z,11.45
2023-03-20T09:33:30.468Z,8.48
2023-03-20T09:35:58.867Z,8.30
2023-03-20T09:38:28.109Z,9.88
2023-03-20T09:40:58.060Z,9.52
2023-03-20T09:43:48.773Z,9.13
2023-03-20T09:46:28.436Z,9.73
2023-03-20T09:49:08.245Z,8.65
2023-03-20T09:51:40.099Z,10.73
2023-03-20T09:54:14.645Z,8.65
2023-03-20T09:56:42.690Z,9.13
2023-03-20T09:59:16.541Z,11.25
2023-03-20T10:01:51.122Z,7.93
2023-03-20T10:04:21.992Z,11.43
2023-03-20T10:06:49.971Z,10.20
2023-03-20T10:09:22.666Z,9.18
2023-03-20T10:12:04.033Z,9.85
2023-03-20T10:15:02.504Z,9.73
2023-03-20T10:17:46.024Z,10.70
2023-03-20T10:20:26.337Z,8.82
2023-03-20T10:25:31.582Z,9.13
2023-03-20T10:28:01.203Z,8.93
2023-03-20T10:30:38.658Z,8.77
2023-03-20T10:33:18.414Z,8.80
2023-03-20T10:35:55.163Z,7.93
2023-03-20T10:38:33.381Z,7.18
2023-03-20T10:41:02.907Z,8.25
2023-03-20T10:43:38.186Z,7.87
2023-03-20T10:46:13.790Z,7.07
2023-03-20T10:48:46.369Z,7.22
2023-03-20T10:51:19.516Z,7.43
2023-03-20T10:53:49.934Z,6.90
2023-03-20T10:56:29.511Z,6.65
2023-03-20T10:59:00.778Z,3.97
2023-03-20T11:01:29.827Z,6.15
2023-03-20T11:03:57.809Z,6.68
2023-03-20T11:06:34.011Z,5.30
2023-03-20T11:09:13.156Z,5.70
2023-03-20T11:11:44.623Z,5.20
2023-03-20T11:14:19.512Z,5.78
2023-03-20T11:16:52.678Z,5.80
2023-03-20T11:19:22.398Z,6.03
2023-03-20T11:21:53.636Z,6.13
2023-03-20T11:24:36.449Z,6.78
2023-03-20T11:27:10.468Z,7.10
2023-03-20T11:29:43.759Z,5.45
2023-03-20T11:32:23.357Z,7.90
2023-03-20T11:34:52.822Z,6.60
2023-03-20T11:37:26.111Z,6.55
2023-03-20T11:39:58.581Z,6.03
2023-03-20T11:42:28.462Z,7.50
2023-03-20T11:45:12.114Z,6.78
2023-03-20T11:47:41.660Z,6.93
2023-03-20T11:50:27.570Z,6.60
2023-03-20T11:52:57.331Z,7.00
2023-03-20T11:55:28.834Z,7.85
2023-03-20T11:57:59.350Z,5.72
2023-03-20T12:00:32.374Z,6.18
2023-03-20T12:03:00.550Z,6.47
2023-03-20T12:05:34.498Z,4.10
2023-03-20T12:08:14.016Z,4.93
2023-03-20T12:10:45.254Z,5.65
2023-03-20T12:13:18.252Z,5.35
2023-03-20T12:15:49.457Z,5.88
2023-03-20T12:18:25.596Z,5.88
2023-03-20T12:21:06.072Z,5.47
2023-03-20T12:23:38.453Z,5.90
2023-03-20T12:26:13.159Z,5.05
2023-03-20T12:28:48.624Z,6.20
2023-03-20T12:31:25.293Z,5.63
2023-03-20T12:33:58.760Z,5.40
2023-03-20T12:36:33.228Z,5.63
2023-03-20T12:39:04.104Z,5.05
2023-03-20T12:41:42.115Z,5.05
2023-03-20T12:44:24.265Z,5.00
2023-03-20T12:47:02.168Z,5.03
2023-03-20T12:49:43.510Z,4.50
2023-03-20T12:52:21.380Z,4.55
2023-03-20T12:55:09.774Z,4.47
2023-03-20T12:57:46.847Z,4.05
2023-03-20T13:00:23.454Z,3.50
2023-03-20T13:03:06.743Z,4.15
2023-03-20T13:05:47.086Z,4.35
2023-03-20T13:08:39.710Z,3.90
2023-03-20T13:11:17.789Z,3.70
2023-03-20T13:13:55.322Z,4.32
2023-03-20T13:16:35.745Z,4.30
2023-03-20T13:19:13.078Z,4.13
2023-03-20T13:21:47.575Z,4.45
2023-03-20T13:24:28.957Z,3.42
2023-03-20T13:27:05.921Z,4.80
2023-03-20T13:29:43.552Z,4.55
2023-03-20T13:32:23.020Z,4.95
2023-03-20T13:37:36.114Z,4.38
2023-03-20T13:40:13.093Z,4.53
2023-03-20T13:42:49.157Z,3.95
2023-03-20T13:45:28.426Z,4.28
2023-03-20T13:48:01.965Z,4.40
2023-03-20T13:50:45.437Z,3.88
2023-03-20T13:53:26.187Z,3.28
2023-03-20T13:56:01.920Z,3.55
2023-03-20T13:59:04.249Z,3.33
2023-03-20T14:01:42.402Z,3.47
2023-03-20T14:04:17.188Z,3.15
2023-03-20T14:06:50.045Z,3.13
2023-03-20T14:09:31.180Z,3.90
2023-03-20T14:12:03.167Z,4.40
2023-03-20T14:14:35.244Z,3.92
2023-03-20T14:17:10.028Z,3.55
2023-03-20T14:19:40.281Z,3.65
2023-03-20T14:22:15.464Z,3.70
2023-03-20T14:24:51.402Z,3.83
2023-03-20T14:27:33.269Z,3.60
2023-03-20T14:30:44.398Z,4.00
2023-03-20T14:33:27.995Z,3.25
2023-03-20T14:36:29.654Z,3.47
2023-03-20T14:39:08.256Z,3.63
2023-03-20T14:41:44.285Z,3.57
2023-03-20T14:44:25.672Z,4.50
2023-03-20T14:47:02.502Z,3.40
2023-03-20T14:49:46.861Z,3.55
2023-03-20T14:52:28.928Z,3.65
2023-03-20T14:54:57.311Z,4.38
2023-03-20T14:57:42.471Z,4.57
2023-03-20T15:00:23.830Z,3.95
2023-03-20T15:02:58.497Z,5.10
2023-03-20T15:05:29.576Z,5.20
2023-03-20T15:08:04.887Z,5.00
2023-03-20T15:10:37.311Z,5.20
2023-03-20T15:13:08.980Z,5.05
2023-03-20T15:15:36.952Z,5.00
2023-03-20T15:18:13.560Z,5.78
2023-03-20T15:20:46.131Z,5.32
2023-03-20T15:23:15.576Z,5.22
2023-03-20T15:25:45.663Z,4.60
2023-03-20T15:28:19.513Z,4.85
2023-03-20T15:30:49.282Z,4.63
2023-03-20T15:35:50.789Z,4.95
2023-03-20T15:38:20.578Z,4.90
2023-03-20T15:40:51.496Z,4.80
2023-03-20T15:43:22.768Z,5.28
2023-03-20T15:46:14.264Z,4.88
2023-03-20T15:48:48.725Z,4.55
2023-03-20T15:51:18.942Z,4.78
2023-03-20T15:53:49.124Z,4.53
2023-03-20T15:56:20.519Z,4.75
2023-03-20T15:58:52.338Z,4.80
2023-03-20T16:01:23.639Z,4.80
2023-03-20T16:03:57.948Z,4.40
2023-03-20T16:06:27.168Z,3.85
2023-03-20T16:09:00.816Z,3.90
2023-03-20T16:11:38.875Z,4.00
2023-03-20T16:14:09.015Z,4.35
2023-03-20T16:16:38.708Z,3.25
2023-03-20T16:19:09.704Z,3.08
2023-03-20T16:21:41.349Z,2.72
2023-03-20T16:24:18.596Z,2.72
2023-03-20T16:26:52.058Z,3.45
2023-03-20T16:29:22.746Z,2.95
2023-03-20T16:31:56.486Z,3.35
2023-03-20T16:35:06.618Z,3.20
2023-03-20T16:37:42.949Z,2.70
2023-03-20T16:40:21.030Z,2.92
2023-03-20T16:42:50.127Z,2.97
2023-03-20T16:45:24.879Z,3.03
2023-03-20T16:48:03.840Z,3.70
2023-03-20T16:50:38.580Z,3.35
2023-03-20T16:53:12.669Z,4.00
2023-03-20T16:55:46.720Z,3.55
2023-03-20T16:58:19.329Z,4.15
2023-03-20T17:00:52.701Z,4.22
2023-03-20T17:03:27.399Z,3.50
2023-03-20T17:06:00.334Z,4.40
2023-03-20T17:08:34.394Z,4.63
2023-03-20T17:11:06.337Z,4.90
2023-03-20T17:13:35.463Z,4.53
2023-03-20T17:16:04.032Z,5.53
2023-03-20T17:18:32.112Z,5.50
2023-03-20T17:21:01.417Z,5.80
2023-03-20T17:23:30.662Z,5.80
2023-03-20T17:25:58.645Z,6.55
2023-03-20T17:28:34.681Z,6.18
2023-03-20T17:31:05.396Z,6.68
2023-03-20T17:33:34.586Z,5.78
2023-03-20T17:36:04.103Z,6.55
2023-03-20T17:38:32.670Z,7.85
2023-03-20T17:41:01.072Z,6.65
2023-03-20T17:43:29.122Z,6.53
2023-03-20T17:45:57.113Z,7.38
2023-03-20T17:48:28.073Z,6.72
2023-03-20T17:50:56.111Z,7.50
2023-03-20T17:53:29.349Z,7.30
2023-03-20T17:55:57.530Z,6.68
2023-03-20T17:58:25.584Z,7.78
2023-03-20T18:00:56.559Z,7.38
2023-03-20T18:03:24.621Z,7.68
2023-03-20T18:05:53.592Z,7.45
2023-03-20T18:08:23.264Z,7.35
2023-03-20T18:10:55.505Z,8.30
2023-03-20T18:13:25.006Z,7.05
2023-03-20T18:15:55.587Z,7.53
2023-03-20T18:18:24.191Z,6.97
2023-03-20T18:20:55.204Z,8.55
2023-03-20T18:23:23.153Z,7.75
2023-03-20T18:25:51.064Z,7.47
2023-03-20T18:28:23.609Z,8.02
2023-03-20T18:30:51.977Z,8.50
2023-03-20T18:33:25.579Z,7.68
2023-03-20T18:35:54.780Z,8.15
2023-03-20T18:38:25.231Z,7.95
2023-03-20T18:40:53.428Z,8.25
2023-03-20T18:43:22.855Z,6.93
2023-03-20T18:45:51.255Z,7.53
2023-03-20T18:48:19.292Z,7.05
2023-03-20T18:55:47.582Z,7.85
2023-03-20T18:58:23.789Z,8.05
2023-03-20T19:00:54.018Z,7.80
2023-03-20T19:03:24.995Z,7.40
2023-03-20T19:05:55.902Z,8.05
2023-03-20T19:10:53.826Z,7.97
2023-03-20T19:13:24.781Z,9.00
2023-03-20T19:15:53.546Z,9.05
2023-03-20T19:18:23.316Z,9.07
2023-03-20T19:23:22.060Z,8.70
2023-03-20T19:25:52.208Z,8.65
2023-03-20T19:28:28.802Z,8.65
2023-03-20T19:31:04.551Z,8.85
2023-03-20T19:33:33.281Z,10.65
2023-03-20T19:36:11.283Z,10.33
2023-03-20T19:38:39.781Z,11.88
2023-03-20T19:41:08.812Z,9.57
2023-03-20T19:43:51.449Z,10.10
2023-03-20T19:46:38.796Z,9.93
2023-03-20T19:49:07.759Z,10.18
2023-03-20T19:51:35.926Z,11.23
2023-03-20T19:54:04.112Z,9.73
2023-03-20T19:56:32.073Z,10.50
2023-03-20T19:59:01.730Z,12.38
2023-03-20T20:01:31.404Z,12.02
2023-03-20T20:03:59.450Z,11.40
2023-03-20T20:06:31.648Z,10.95
2023-03-20T20:09:01.193Z,11.60
2023-03-20T20:11:29.943Z,11.63
2023-03-20T20:14:06.681Z,13.32
2023-03-20T20:16:40.270Z,12.32
2023-03-20T20:19:08.948Z,13.43
2023-03-20T20:24:26.008Z,12.30
2023-03-20T20:27:13.051Z,11.88
2023-03-20T20:29:44.585Z,12.57
2023-03-20T20:32:13.884Z,11.15
2023-03-20T20:40:22.044Z,11.60
2023-03-20T20:42:52.624Z,11.48
2023-03-20T20:45:22.156Z,12.38
2023-03-20T20:47:52.349Z,12.90
2023-03-20T20:50:22.605Z,11.77
2023-03-20T20:52:53.752Z,12.93
2023-03-20T20:55:24.082Z,11.90
2023-03-20T20:57:53.946Z,11.15
2023-03-20T21:00:37.113Z,10.93
2023-03-20T21:03:11.661Z,11.75
2023-03-20T21:05:42.917Z,11.57
2023-03-20T21:08:14.751Z,10.85
2023-03-20T21:10:45.323Z,10.98
2023-03-20T21:13:14.345Z,11.32
2023-03-20T21:15:43.368Z,10.93
2023-03-20T21:18:13.513Z,10.43
2023-03-20T21:20:41.441Z,10.50
2023-03-20T21:23:10.541Z,10.45
2023-03-20T21:25:41.343Z,10.88
2023-03-20T21:28:13.717Z,9.35
2023-03-20T21:31:04.196Z,10.07
2023-03-20T21:33:33.824Z,10.63
2023-03-20T21:36:02.392Z,9.70
2023-03-20T21:39:01.985Z,10.65
2023-03-20T21:41:19.313Z,9.70
2023-03-20T21:43:47.685Z,9.65
2023-03-20T21:46:55.344Z,10.93
2023-03-20T21:49:58.447Z,8.88
2023-03-20T22:03:29.102Z,8.63
2023-03-20T22:17:56.178Z,7.10
2023-03-20T22:26:58.717Z,7.10
2023-03-20T22:34:54.343Z,8.20
2023-03-20T22:40:48.586Z,6.82
2023-03-20T22:43:20.773Z,7.72
2023-03-20T22:45:43.007Z,7.82
2023-03-20T22:48:16.025Z,8.30
2023-03-20T22:50:44.385Z,8.30
2023-03-20T22:53:12.435Z,8.35
2023-03-20T22:55:44.684Z,8.15
2023-03-20T22:58:12.936Z,7.85
2023-03-20T23:00:41.494Z,7.03
2023-03-20T23:03:22.335Z,7.68
2023-03-20T23:05:58.710Z,7.07
2023-03-20T23:08:27.952Z,7.90
2023-03-20T23:10:58.912Z,7.50
2023-03-20T23:13:27.031Z,7.47
2023-03-20T23:15:55.593Z,7.90
2023-03-20T23:18:24.699Z,7.30
2023-03-20T23:20:57.778Z,6.82
2023-03-20T23:23:28.041Z,6.70
2023-03-20T23:26:05.709Z,7.18
2023-03-20T23:28:33.969Z,7.75
2023-03-20T23:31:10.338Z,6.38
2023-03-20T23:33:39.278Z,6.75
2023-03-20T23:36:21.439Z,7.82
2023-03-20T23:38:57.181Z,7.75
2023-03-20T23:41:53.622Z,7.40
2023-03-20T23:44:15.276Z,6.65
2023-03-20T23:46:44.684Z,6.60
2023-03-20T23:49:13.604Z,7.80
2023-03-20T23:51:42.024Z,6.72
2023-03-20T23:54:10.569Z,8.43
2023-03-20T23:56:39.994Z,7.00
2023-03-20T23:59:20.557Z,8.10
